createdAt,value
2022-12-29T00:00:18.939Z,50.67
2022-12-29T00:02:45.887Z,54.25
2022-12-29T00:05:12.914Z,46.00
2022-12-29T00:07:39.748Z,55.25
2022-12-29T00:10:07.411Z,51.75
2022-12-29T00:12:53.141Z,44.25
2022-12-29T00:15:39.003Z,47.25
2022-12-29T00:18:07.197Z,46.75
2022-12-29T00:20:56.498Z,46.00
2022-12-29T00:23:42.142Z,47.25
2022-12-29T00:26:45.575Z,41.25
2022-12-29T00:29:30.783Z,54.00
2022-12-29T00:32:16.292Z,46.50
2022-12-29T00:35:04.031Z,46.00
2022-12-29T00:37:49.706Z,49.00
2022-12-29T00:40:35.354Z,52.00
2022-12-29T00:43:20.883Z,55.25
2022-12-29T00:45:47.674Z,47.00
2022-12-29T00:48:14.550Z,48.67
2022-12-29T00:50:41.480Z,46.00
2022-12-29T00:53:08.271Z,47.00
2022-12-29T00:55:39.442Z,46.00
2022-12-29T00:58:06.288Z,53.25
2022-12-29T01:00:33.985Z,52.75
2022-12-29T01:03:01.626Z,46.75
2022-12-29T01:05:28.520Z,46.00
2022-12-29T01:07:55.298Z,46.00
2022-12-29T01:10:22.083Z,52.50
2022-12-29T01:12:50.317Z,52.00
2022-12-29T01:15:17.232Z,54.50
2022-12-29T01:17:45.292Z,47.00
2022-12-29T01:20:13.009Z,46.00
2022-12-29T01:22:41.056Z,46.00
2022-12-29T01:25:08.709Z,50.67
2022-12-29T01:27:35.533Z,46.25
2022-12-29T01:30:02.394Z,47.00
2022-12-29T01:32:29.188Z,55.75
2022-12-29T01:34:55.989Z,47.00
2022-12-29T01:37:22.864Z,46.00
2022-12-29T01:39:49.740Z,47.00
2022-12-29T01:42:23.614Z,54.25
2022-12-29T01:44:55.112Z,47.00
2022-12-29T01:47:42.190Z,47.25
2022-12-29T01:50:40.611Z,56.75
2022-12-29T01:53:12.579Z,47.25
2022-12-29T01:55:47.880Z,51.00
2022-12-29T01:58:19.038Z,53.50
2022-12-29T02:00:46.069Z,58.25
2022-12-29T02:03:13.403Z,46.25
2022-12-29T02:05:53.386Z,46.00
2022-12-29T02:08:23.635Z,56.75
2022-12-29T02:10:50.634Z,57.50
2022-12-29T02:13:20.635Z,47.75
2022-12-29T02:16:10.671Z,56.00
2022-12-29T02:18:45.330Z,51.67
2022-12-29T02:21:30.702Z,57.25
2022-12-29T02:24:23.514Z,47.25
2022-12-29T02:26:56.290Z,56.50
2022-12-29T02:29:38.196Z,47.25
2022-12-29T02:32:27.185Z,48.50
2022-12-29T02:35:48.204Z,58.00
2022-12-29T02:38:44.107Z,47.25
2022-12-29T02:41:40.755Z,47.25
2022-12-29T02:44:13.133Z,47.25
2022-12-29T02:46:56.276Z,47.25
2022-12-29T02:49:29.081Z,47.25
2022-12-29T02:52:04.844Z,47.25
2022-12-29T02:54:44.926Z,51.25
2022-12-29T02:57:38.620Z,53.50
2022-12-29T03:00:16.012Z,49.00
2022-12-29T03:03:07.133Z,47.00
2022-12-29T03:05:38.057Z,47.25
2022-12-29T03:08:35.299Z,47.25
2022-12-29T03:11:32.057Z,57.25
2022-12-29T03:14:27.551Z,47.25
2022-12-29T03:17:26.861Z,48.50
2022-12-29T03:20:21.804Z,58.00
2022-12-29T03:23:01.928Z,58.00
2022-12-29T03:25:38.178Z,47.25
2022-12-29T03:28:22.256Z,47.00
2022-12-29T03:30:52.089Z,57.25
2022-12-29T03:33:24.843Z,52.25
2022-12-29T03:36:13.177Z,53.75
2022-12-29T03:38:55.317Z,54.75
2022-12-29T03:41:27.173Z,56.00
2022-12-29T03:43:54.127Z,47.00
2022-12-29T03:46:20.945Z,55.50
2022-12-29T03:48:47.753Z,47.50
2022-12-29T03:51:14.650Z,53.00
2022-12-29T03:53:41.980Z,56.75
2022-12-29T03:56:08.853Z,47.50
2022-12-29T03:58:36.176Z,47.00
2022-12-29T04:01:12.057Z,55.25
2022-12-29T04:03:39.727Z,58.00
2022-12-29T04:06:06.831Z,52.25
2022-12-29T04:08:43.490Z,46.25
2022-12-29T04:11:10.340Z,49.67
2022-12-29T04:13:37.429Z,48.00
2022-12-29T04:16:04.617Z,57.25
2022-12-29T04:18:31.467Z,55.50
2022-12-29T04:21:00.971Z,47.25
2022-12-29T04:23:29.943Z,47.25
2022-12-29T04:25:57.238Z,47.00
2022-12-29T04:28:25.796Z,57.25
2022-12-29T04:31:24.081Z,56.25
2022-12-29T04:33:51.139Z,49.00
2022-12-29T04:36:17.948Z,52.25
2022-12-29T04:38:46.028Z,48.25
2022-12-29T04:41:13.677Z,52.00
2022-12-29T04:43:40.521Z,47.00
2022-12-29T04:46:10.221Z,54.25
2022-12-29T04:48:54.119Z,47.00
2022-12-29T04:51:47.189Z,58.00
2022-12-29T04:54:15.543Z,47.75
2022-12-29T04:56:44.642Z,48.25
2022-12-29T04:59:13.992Z,51.00
2022-12-29T05:01:43.672Z,47.25
2022-12-29T05:04:11.155Z,47.00
2022-12-29T05:06:38.369Z,47.00
2022-12-29T05:09:05.222Z,54.25
2022-12-29T05:11:32.410Z,47.00
2022-12-29T05:13:59.310Z,58.00
2022-12-29T05:16:26.146Z,55.50
2022-12-29T05:18:53.405Z,56.00
2022-12-29T05:21:20.343Z,47.00
2022-12-29T05:23:47.102Z,49.00
2022-12-29T05:26:15.459Z,57.25
2022-12-29T05:28:53.365Z,47.00
2022-12-29T05:31:20.527Z,46.00
2022-12-29T05:33:48.461Z,53.00
2022-12-29T05:36:15.629Z,47.00
2022-12-29T05:38:46.980Z,48.50
2022-12-29T05:41:14.156Z,53.50
2022-12-29T05:43:49.919Z,47.00
2022-12-29T05:46:54.971Z,56.75
2022-12-29T05:49:34.281Z,56.25
2022-12-29T05:52:20.328Z,47.25
2022-12-29T05:54:48.215Z,47.00
2022-12-29T05:57:18.143Z,52.00
2022-12-29T05:59:49.708Z,46.25
2022-12-29T06:02:16.569Z,47.00
2022-12-29T06:04:44.327Z,51.75
2022-12-29T06:07:11.655Z,47.00
2022-12-29T06:09:43.773Z,47.00
2022-12-29T06:12:10.928Z,51.67
2022-12-29T06:14:39.697Z,47.00
2022-12-29T06:17:06.968Z,47.00
2022-12-29T06:19:34.726Z,46.75
2022-12-29T06:22:01.551Z,47.00
2022-12-29T06:24:29.129Z,47.00
2022-12-29T06:26:55.963Z,54.00
2022-12-29T06:29:23.235Z,47.25
2022-12-29T06:31:50.550Z,58.00
2022-12-29T06:34:17.401Z,56.75
2022-12-29T06:36:44.280Z,56.75
2022-12-29T06:39:11.740Z,56.25
2022-12-29T06:41:38.983Z,54.00
2022-12-29T06:44:38.323Z,54.50
2022-12-29T06:47:09.385Z,56.00
2022-12-29T06:49:36.254Z,57.00
2022-12-29T06:52:10.830Z,57.50
2022-12-29T06:54:39.806Z,47.00
2022-12-29T06:57:06.701Z,57.00
2022-12-29T06:59:34.431Z,47.00
2022-12-29T07:02:03.220Z,47.50
2022-12-29T07:04:30.325Z,57.00
2022-12-29T07:06:57.239Z,51.75
2022-12-29T07:09:24.021Z,49.67
2022-12-29T07:11:51.422Z,47.00
2022-12-29T07:14:18.255Z,47.00
2022-12-29T07:16:45.256Z,47.00
2022-12-29T07:19:12.173Z,48.00
2022-12-29T07:21:39.138Z,56.75
2022-12-29T07:24:06.254Z,51.75
2022-12-29T07:26:36.280Z,47.25
2022-12-29T07:29:06.526Z,47.25
2022-12-29T07:31:33.414Z,47.25
2022-12-29T07:34:00.297Z,58.00
2022-12-29T07:36:33.989Z,47.25
2022-12-29T07:39:01.321Z,47.00
2022-12-29T07:41:28.128Z,47.25
2022-12-29T07:43:54.976Z,47.00
2022-12-29T07:46:55.947Z,54.75
2022-12-29T07:49:18.448Z,47.25
2022-12-29T07:51:45.244Z,47.50
2022-12-29T07:54:13.668Z,47.25
2022-12-29T07:56:40.653Z,47.00
2022-12-29T07:59:07.464Z,54.25
2022-12-29T08:01:34.460Z,47.25
2022-12-29T08:04:01.570Z,47.25
2022-12-29T08:06:29.727Z,47.25
2022-12-29T08:08:57.424Z,48.00
2022-12-29T08:11:24.956Z,47.00
2022-12-29T08:13:51.749Z,56.00
2022-12-29T08:16:18.632Z,47.25
2022-12-29T08:18:45.509Z,54.00
2022-12-29T08:21:12.484Z,47.25
2022-12-29T08:23:39.481Z,58.00
2022-12-29T08:26:07.327Z,59.25
2022-12-29T08:28:34.511Z,53.00
2022-12-29T08:31:02.634Z,56.00
2022-12-29T08:33:30.291Z,57.75
2022-12-29T08:36:05.464Z,49.00
2022-12-29T08:38:33.238Z,49.00
2022-12-29T08:41:02.116Z,57.50
2022-12-29T08:43:29.235Z,58.00
2022-12-29T08:45:57.150Z,49.00
2022-12-29T08:48:24.062Z,49.00
2022-12-29T08:50:51.546Z,50.00
2022-12-29T08:53:19.175Z,55.50
2022-12-29T08:56:04.660Z,49.00
2022-12-29T08:58:40.313Z,47.25
2022-12-29T09:01:07.987Z,57.25
2022-12-29T09:04:12.925Z,47.50
2022-12-29T09:06:22.428Z,48.75
2022-12-29T09:08:49.316Z,49.50
2022-12-29T09:11:24.964Z,48.75
2022-12-29T09:13:52.857Z,49.00
2022-12-29T09:16:23.200Z,49.00
2022-12-29T09:18:50.451Z,58.00
2022-12-29T09:21:17.523Z,59.00
2022-12-29T09:23:44.331Z,54.50
2022-12-29T09:26:11.186Z,57.00
2022-12-29T09:28:38.142Z,52.25
2022-12-29T09:31:05.363Z,62.25
2022-12-29T09:33:34.430Z,68.25
2022-12-29T09:36:01.342Z,65.00
2022-12-29T09:38:29.153Z,66.00
2022-12-29T09:41:16.405Z,65.67
2022-12-29T09:44:18.393Z,69.75
2022-12-29T09:46:50.682Z,63.50
2022-12-29T09:49:25.760Z,53.50
2022-12-29T09:51:56.213Z,60.25
2022-12-29T09:54:55.210Z,50.00
2022-12-29T09:57:50.862Z,58.00
2022-12-29T10:00:24.301Z,49.00
2022-12-29T10:03:00.506Z,55.00
2022-12-29T10:05:47.474Z,47.25
2022-12-29T10:08:41.301Z,58.00
2022-12-29T10:11:32.636Z,50.00
2022-12-29T10:14:38.186Z,56.25
2022-12-29T10:17:07.792Z,47.25
2022-12-29T10:20:05.044Z,54.25
2022-12-29T10:22:45.695Z,51.50
2022-12-29T10:25:19.272Z,47.00
2022-12-29T10:27:49.795Z,45.25
2022-12-29T10:30:18.135Z,52.50
2022-12-29T10:32:48.982Z,54.25
2022-12-29T10:35:22.290Z,50.00
2022-12-29T10:38:04.515Z,48.00
2022-12-29T10:40:39.340Z,50.00
2022-12-29T10:43:36.294Z,46.50
2022-12-29T10:46:07.467Z,53.50
2022-12-29T10:48:36.188Z,53.50
2022-12-29T10:51:06.750Z,53.00
2022-12-29T10:53:58.142Z,47.25
2022-12-29T10:56:37.346Z,46.75
2022-12-29T10:59:26.271Z,53.67
2022-12-29T11:02:08.334Z,55.00
2022-12-29T11:04:44.409Z,46.00
2022-12-29T11:07:16.169Z,46.00
2022-12-29T11:09:45.007Z,46.00
2022-12-29T11:12:26.399Z,46.00
2022-12-29T11:15:11.343Z,46.00
2022-12-29T11:17:57.243Z,46.00
2022-12-29T11:20:29.937Z,54.75
2022-12-29T11:22:57.060Z,52.00
2022-12-29T11:25:23.989Z,53.75
2022-12-29T11:28:15.896Z,46.00
2022-12-29T11:30:43.476Z,49.67
2022-12-29T11:33:10.982Z,46.00
2022-12-29T11:35:43.459Z,53.33
2022-12-29T11:38:26.735Z,52.00
2022-12-29T11:40:53.867Z,53.33
2022-12-29T11:43:38.277Z,47.25
2022-12-29T11:46:06.361Z,54.00
2022-12-29T11:48:39.225Z,46.00
2022-12-29T11:51:08.727Z,50.00
2022-12-29T11:53:48.838Z,50.67
2022-12-29T11:56:21.219Z,44.50
2022-12-29T11:58:50.518Z,51.33
2022-12-29T12:01:33.633Z,46.00
2022-12-29T12:04:05.823Z,46.00
2022-12-29T12:06:37.316Z,53.00
2022-12-29T12:09:11.569Z,55.00
2022-12-29T12:11:44.463Z,46.25
2022-12-29T12:14:37.870Z,53.33
2022-12-29T12:17:42.466Z,44.50
2022-12-29T12:20:38.651Z,46.00
2022-12-29T12:23:14.163Z,52.67
2022-12-29T12:25:46.510Z,46.00
2022-12-29T12:28:25.324Z,46.00
2022-12-29T12:30:58.556Z,55.00
2022-12-29T12:33:38.370Z,46.00
2022-12-29T12:36:24.006Z,48.25
2022-12-29T12:39:05.897Z,62.50
2022-12-29T12:41:53.290Z,85.25
2022-12-29T12:44:38.011Z,96.25
2022-12-29T12:47:24.569Z,93.25
2022-12-29T12:50:10.045Z,97.50
2022-12-29T12:53:01.893Z,89.00
2022-12-29T12:55:53.328Z,80.50
2022-12-29T12:59:00.136Z,81.25
2022-12-29T13:01:31.395Z,71.00
2022-12-29T13:04:20.464Z,60.50
